createdAt,value
2022-12-01T00:01:07.324Z,566.10
2022-12-01T00:03:35.193Z,554.67
2022-12-01T00:06:07.213Z,555.00
2022-12-01T00:08:34.100Z,552.53
2022-12-01T00:11:09.080Z,553.30
2022-12-01T00:13:36.567Z,555.40
2022-12-01T00:16:14.208Z,554.13
2022-12-01T00:18:41.626Z,557.33
2022-12-01T00:21:18.740Z,556.00
2022-12-01T00:23:47.459Z,556.55
2022-12-01T00:26:14.939Z,555.38
2022-12-01T00:28:41.599Z,565.60
2022-12-01T00:31:09.139Z,563.70
2022-12-01T00:33:35.983Z,566.30
2022-12-01T00:36:03.435Z,569.03
2022-12-01T00:38:30.240Z,569.05
2022-12-01T00:40:56.937Z,564.92
2022-12-01T00:43:24.951Z,566.17
2022-12-01T00:45:51.932Z,569.08
2022-12-01T00:48:20.753Z,568.70
2022-12-01T00:50:47.748Z,565.40
2022-12-01T00:53:14.323Z,570.75
2022-12-01T00:55:40.856Z,568.15
2022-12-01T00:58:07.642Z,571.83
2022-12-01T01:00:34.278Z,569.47
2022-12-01T01:03:00.848Z,571.67
2022-12-01T01:05:27.437Z,569.63
2022-12-01T01:07:54.140Z,565.80
2022-12-01T01:10:20.757Z,569.33
2022-12-01T01:12:47.325Z,567.17
2022-12-01T01:15:13.998Z,561.03
2022-12-01T01:17:40.643Z,557.77
2022-12-01T01:20:07.775Z,558.40
2022-12-01T01:22:35.278Z,556.97
2022-12-01T01:25:01.862Z,558.50
2022-12-01T01:27:28.431Z,563.90
2022-12-01T01:29:54.946Z,561.92
2022-12-01T01:32:21.754Z,562.05
2022-12-01T01:34:48.457Z,565.97
2022-12-01T01:37:15.029Z,559.38
2022-12-01T01:39:41.801Z,563.58
2022-12-01T01:42:12.840Z,560.22
2022-12-01T01:44:54.682Z,564.47
2022-12-01T01:47:28.426Z,572.13
2022-12-01T01:49:57.193Z,571.40
2022-12-01T01:52:24.583Z,567.17
2022-12-01T01:54:55.391Z,568.72
2022-12-01T01:57:42.012Z,569.45
2022-12-01T02:00:12.839Z,564.38
2022-12-01T02:02:44.260Z,565.80
2022-12-01T02:05:20.395Z,564.92
2022-12-01T02:07:47.921Z,564.80
2022-12-01T02:10:22.256Z,563.85
2022-12-01T02:13:20.473Z,562.22
2022-12-01T02:16:18.842Z,560.30
2022-12-01T02:19:43.269Z,562.80
2022-12-01T02:22:27.804Z,563.55
2022-12-01T02:25:18.484Z,565.00
2022-12-01T02:28:03.957Z,560.92
2022-12-01T02:30:58.297Z,564.78
2022-12-01T02:33:50.852Z,562.70
2022-12-01T02:36:20.910Z,568.63
2022-12-01T02:38:55.668Z,573.40
2022-12-01T02:41:24.782Z,569.08
2022-12-01T02:44:16.379Z,566.70
2022-12-01T02:46:54.525Z,577.00
2022-12-01T02:49:26.428Z,567.50
2022-12-01T02:51:55.773Z,568.20
2022-12-01T02:54:24.110Z,568.78
2022-12-01T02:56:54.163Z,569.17
2022-12-01T02:59:20.756Z,568.58
2022-12-01T03:01:52.139Z,564.03
2022-12-01T03:04:30.833Z,565.83
2022-12-01T03:07:35.360Z,571.20
2022-12-01T03:10:21.100Z,565.88
2022-12-01T03:13:06.845Z,537.17
2022-12-01T03:15:45.888Z,571.92
2022-12-01T03:18:18.411Z,569.23
2022-12-01T03:20:58.874Z,565.90
2022-12-01T03:23:30.181Z,564.08
2022-12-01T03:25:59.067Z,564.10
2022-12-01T03:28:32.559Z,568.85
2022-12-01T03:31:05.238Z,563.95
2022-12-01T03:33:36.712Z,559.05
2022-12-01T03:36:25.979Z,556.45
2022-12-01T03:39:00.236Z,562.67
2022-12-01T03:41:42.212Z,569.90
2022-12-01T03:44:16.683Z,567.83
2022-12-01T03:46:55.375Z,566.45
2022-12-01T03:49:24.754Z,567.93
2022-12-01T03:52:19.333Z,573.75
2022-12-01T03:54:57.811Z,568.20
2022-12-01T03:57:30.339Z,564.53
2022-12-01T03:59:57.171Z,568.45
2022-12-01T04:02:27.699Z,571.28
2022-12-01T04:04:54.400Z,578.20
2022-12-01T04:07:21.912Z,574.55
2022-12-01T04:09:49.005Z,571.58
2022-12-01T04:12:32.744Z,571.40
2022-12-01T04:15:01.683Z,573.22
2022-12-01T04:17:28.834Z,572.75
2022-12-01T04:19:55.510Z,572.13
2022-12-01T04:22:23.115Z,570.42
2022-12-01T04:24:49.785Z,573.83
2022-12-01T04:27:16.554Z,570.90
2022-12-01T04:29:43.229Z,566.80
2022-12-01T04:32:09.856Z,559.65
2022-12-01T04:34:36.729Z,557.55
2022-12-01T04:37:04.302Z,550.40
2022-12-01T04:39:30.872Z,555.57
2022-12-01T04:41:57.436Z,559.22
2022-12-01T04:44:24.188Z,560.88
2022-12-01T04:46:52.333Z,558.83
2022-12-01T04:49:20.248Z,566.40
2022-12-01T04:51:46.987Z,569.87
2022-12-01T04:54:14.322Z,566.27
2022-12-01T04:56:41.442Z,572.25
2022-12-01T04:59:08.652Z,564.40
2022-12-01T05:01:35.351Z,567.95
2022-12-01T05:04:02.558Z,557.78
2022-12-01T05:06:29.552Z,556.97
2022-12-01T05:08:58.180Z,543.63
2022-12-01T05:11:25.821Z,554.75
2022-12-01T05:13:52.699Z,551.40
2022-12-01T05:16:22.239Z,552.92
2022-12-01T05:18:50.712Z,546.03
2022-12-01T05:21:18.163Z,553.37
2022-12-01T05:23:45.646Z,555.95
2022-12-01T05:26:12.183Z,548.42
2022-12-01T05:28:40.808Z,540.72
2022-12-01T05:31:07.438Z,553.65
2022-12-01T05:33:34.093Z,544.05
2022-12-01T05:36:00.816Z,548.35
2022-12-01T05:38:30.388Z,548.15
2022-12-01T05:40:56.954Z,539.05
2022-12-01T05:43:29.031Z,553.30
2022-12-01T05:45:56.832Z,552.90
2022-12-01T05:48:23.767Z,553.00
2022-12-01T05:50:50.447Z,548.92
2022-12-01T05:53:17.074Z,558.50
2022-12-01T05:55:43.775Z,553.58
2022-12-01T05:58:11.034Z,552.47
2022-12-01T06:00:45.801Z,553.28
2022-12-01T06:03:13.522Z,543.20
2022-12-01T06:05:40.755Z,541.67
2022-12-01T06:08:08.056Z,537.00
2022-12-01T06:10:34.737Z,538.38
2022-12-01T06:13:01.467Z,539.60
2022-12-01T06:15:28.449Z,535.70
2022-12-01T06:17:55.128Z,534.90
2022-12-01T06:20:23.303Z,528.83
2022-12-01T06:22:49.947Z,530.42
2022-12-01T06:25:16.622Z,536.60
2022-12-01T06:27:43.183Z,537.33
2022-12-01T06:30:10.084Z,523.63
2022-12-01T06:32:36.750Z,531.00
2022-12-01T06:35:03.461Z,540.53
2022-12-01T06:37:30.113Z,536.72
2022-12-01T06:39:56.678Z,525.35
2022-12-01T06:42:23.471Z,532.97
2022-12-01T06:44:50.096Z,527.83
2022-12-01T06:47:16.697Z,530.67
2022-12-01T06:49:43.275Z,527.97
2022-12-01T06:52:10.407Z,529.85
2022-12-01T06:54:37.469Z,530.37
2022-12-01T06:57:04.651Z,540.13
2022-12-01T06:59:31.608Z,540.03
2022-12-01T07:01:58.981Z,552.58
2022-12-01T07:04:25.679Z,548.35
2022-12-01T07:06:52.304Z,546.20
2022-12-01T07:09:19.031Z,540.53
2022-12-01T07:11:45.564Z,541.97
2022-12-01T07:14:23.614Z,547.47
2022-12-01T07:16:50.803Z,534.67
2022-12-01T07:19:17.518Z,543.00
2022-12-01T07:21:44.161Z,537.40
2022-12-01T07:24:12.521Z,535.97
2022-12-01T07:26:40.260Z,534.22
2022-12-01T07:29:07.559Z,534.92
2022-12-01T07:31:34.256Z,528.67
2022-12-01T07:34:00.804Z,528.15
2022-12-01T07:36:27.472Z,529.35
2022-12-01T07:38:54.047Z,532.03
2022-12-01T07:41:20.802Z,523.00
2022-12-01T07:43:50.365Z,533.78
2022-12-01T07:46:23.116Z,535.78
2022-12-01T07:48:51.675Z,518.63
2022-12-01T07:51:18.816Z,514.83
2022-12-01T07:53:47.537Z,524.92
2022-12-01T07:56:14.259Z,520.08
2022-12-01T07:58:41.409Z,506.88
2022-12-01T08:01:09.331Z,517.60
2022-12-01T08:03:36.500Z,511.10
2022-12-01T08:06:03.522Z,523.20
2022-12-01T08:08:32.238Z,518.80
2022-12-01T08:11:05.543Z,516.30
2022-12-01T08:13:32.781Z,520.30
2022-12-01T08:16:02.563Z,519.70
2022-12-01T08:18:29.266Z,524.40
2022-12-01T08:20:58.801Z,517.85
2022-12-01T08:23:25.509Z,511.67
2022-12-01T08:25:55.259Z,508.98
2022-12-01T08:28:21.955Z,514.75
2022-12-01T08:30:48.590Z,503.98
2022-12-01T08:33:15.283Z,510.23
2022-12-01T08:35:41.844Z,504.92
2022-12-01T08:38:09.398Z,507.00
2022-12-01T08:40:36.322Z,510.90
2022-12-01T08:43:03.088Z,512.63
2022-12-01T08:45:29.761Z,508.98
2022-12-01T08:48:00.026Z,500.45
2022-12-01T08:50:27.141Z,504.15
2022-12-01T08:52:53.763Z,512.45
2022-12-01T08:55:21.881Z,510.85
2022-12-01T08:57:48.439Z,514.33
2022-12-01T09:00:16.292Z,517.28
2022-12-01T09:02:42.921Z,516.65
2022-12-01T09:05:09.803Z,518.40
2022-12-01T09:07:36.641Z,517.63
2022-12-01T09:10:04.296Z,519.95
2022-12-01T09:12:30.915Z,513.80
2022-12-01T09:14:57.566Z,522.92
2022-12-01T09:17:24.064Z,510.77
2022-12-01T09:19:51.027Z,507.77
2022-12-01T09:22:17.901Z,513.28
2022-12-01T09:24:44.438Z,524.30
2022-12-01T09:27:10.968Z,525.63
2022-12-01T09:29:37.613Z,510.58
2022-12-01T09:32:04.225Z,510.60
2022-12-01T09:34:30.904Z,505.35
2022-12-01T09:36:58.497Z,507.23
2022-12-01T09:39:25.688Z,509.03
2022-12-01T09:42:22.249Z,504.85
2022-12-01T09:44:52.940Z,508.20
2022-12-01T09:47:29.857Z,506.02
2022-12-01T09:50:27.406Z,505.40
2022-12-01T09:52:59.833Z,516.35
2022-12-01T09:55:28.767Z,521.60
2022-12-01T09:57:57.633Z,513.13
2022-12-01T10:00:40.185Z,514.70
2022-12-01T10:03:22.031Z,519.40
2022-12-01T10:06:25.143Z,512.88
2022-12-01T10:08:43.994Z,501.40
2022-12-01T10:11:29.167Z,498.83
2022-12-01T10:13:55.800Z,499.42
2022-12-01T10:16:31.651Z,492.15
2022-12-01T10:19:32.888Z,505.80
2022-12-01T10:22:23.662Z,500.17
2022-12-01T10:24:59.965Z,492.10
2022-12-01T10:27:38.464Z,502.48
2022-12-01T10:30:16.945Z,500.77
2022-12-01T10:33:01.875Z,507.55
2022-12-01T10:35:36.035Z,510.00
2022-12-01T10:38:06.748Z,503.95
2022-12-01T10:40:36.524Z,514.13
2022-12-01T10:43:03.382Z,509.70
2022-12-01T10:45:37.278Z,509.35
2022-12-01T10:48:17.537Z,511.50
2022-12-01T10:50:48.383Z,509.00
2022-12-01T10:53:28.256Z,501.70
2022-12-01T10:56:06.315Z,512.60
2022-12-01T10:58:43.801Z,519.58
2022-12-01T11:01:22.012Z,513.72
2022-12-01T11:03:57.537Z,501.95
2022-12-01T11:06:28.033Z,510.23
2022-12-01T11:09:01.043Z,511.10
2022-12-01T11:11:40.508Z,517.73
2022-12-01T11:14:23.778Z,514.50
2022-12-01T11:16:53.978Z,514.78
2022-12-01T11:19:33.897Z,500.08
2022-12-01T11:22:03.326Z,503.65
2022-12-01T11:24:29.888Z,508.60
2022-12-01T11:27:00.530Z,514.27
2022-12-01T11:29:36.197Z,516.22
2022-12-01T11:32:22.778Z,510.63
2022-12-01T11:35:03.639Z,500.95
2022-12-01T11:37:38.987Z,512.25
2022-12-01T11:40:13.661Z,503.35
2022-12-01T11:42:41.442Z,499.98
2022-12-01T11:45:21.210Z,498.83
2022-12-01T11:48:16.593Z,502.20
2022-12-01T11:50:45.217Z,498.77
2022-12-01T11:53:32.682Z,487.38
2022-12-01T11:56:28.593Z,486.88
2022-12-01T11:59:03.839Z,505.65
2022-12-01T12:01:42.528Z,504.95
2022-12-01T12:04:30.709Z,509.02
2022-12-01T12:07:13.313Z,509.48
2022-12-01T12:09:55.200Z,506.60
2022-12-01T12:12:49.543Z,513.23
2022-12-01T12:15:28.771Z,513.67
2022-12-01T12:18:29.235Z,509.08
2022-12-01T12:21:29.406Z,510.70
2022-12-01T12:24:03.352Z,520.97
2022-12-01T12:26:35.257Z,506.75
2022-12-01T12:29:37.914Z,515.90
2022-12-01T12:32:28.356Z,519.97
2022-12-01T12:35:23.574Z,515.60
2022-12-01T12:38:02.719Z,524.08
2022-12-01T12:40:41.852Z,516.47
2022-12-01T12:43:27.366Z,531.92
2022-12-01T12:46:09.174Z,505.07
2022-12-01T12:49:19.611Z,505.03
2022-12-01T12:51:56.803Z,502.45
2022-12-01T12:54:43.314Z,514.80
2022-12-01T12:57:35.004Z,522.90
2022-12-01T13:00:05.070Z,515.63
2022-12-01T13:02:43.889Z,510.93
2022-12-01T13:05:19.403Z,518.13
2022-12-01T13:07:46.070Z,507.08
2022-12-01T13:10:44.926Z,514.45
2022-12-01T13:13:25.773Z,519.10
2022-12-01T13:15:55.813Z,520.00
2022-12-01T13:18:30.128Z,523.30
2022-12-01T13:20:57.843Z,514.35
2022-12-01T13:23:25.297Z,514.75
2022-12-01T13:25:56.158Z,522.88
2022-12-01T13:28:53.995Z,514.83
2022-12-01T13:31:21.993Z,516.78
2022-12-01T13:34:03.895Z,517.63
2022-12-01T13:36:46.640Z,509.17
2022-12-01T13:39:40.547Z,503.55
2022-12-01T13:42:23.716Z,504.35
2022-12-01T13:44:56.973Z,514.53
2022-12-01T13:47:31.661Z,518.65
2022-12-01T13:50:36.181Z,518.80
2022-12-01T13:53:30.516Z,518.65
2022-12-01T13:56:03.444Z,523.08
2022-12-01T13:58:33.178Z,517.75
2022-12-01T14:01:21.821Z,526.03
2022-12-01T14:03:57.826Z,526.30
2022-12-01T14:06:51.151Z,537.47
2022-12-01T14:09:24.041Z,506.80
2022-12-01T14:12:17.548Z,506.55
2022-12-01T14:14:57.127Z,509.73
2022-12-01T14:17:33.882Z,514.00
2022-12-01T14:20:19.663Z,513.45
2022-12-01T14:23:13.101Z,523.13
2022-12-01T14:25:41.547Z,518.38
2022-12-01T14:28:19.442Z,521.90
2022-12-01T14:30:46.099Z,530.38
2022-12-01T14:33:42.609Z,517.50
2022-12-01T14:36:24.593Z,500.30
2022-12-01T14:38:54.401Z,503.60
2022-12-01T14:41:45.748Z,509.70
2022-12-01T14:44:17.567Z,506.08
2022-12-01T14:46:51.574Z,514.65
2022-12-01T14:49:24.119Z,508.50
2022-12-01T14:52:06.947Z,501.73
2022-12-01T14:54:45.309Z,514.20
2022-12-01T14:57:17.227Z,515.65
2022-12-01T14:59:44.830Z,506.63
2022-12-01T15:02:12.416Z,502.50
2022-12-01T15:05:27.519Z,519.67
2022-12-01T15:08:18.643Z,505.33
2022-12-01T15:11:00.462Z,523.78
2022-12-01T15:13:30.265Z,506.17
2022-12-01T15:16:02.437Z,497.50
2022-12-01T15:18:31.591Z,499.70
2022-12-01T15:21:06.977Z,501.15
2022-12-01T15:23:33.891Z,515.05
2022-12-01T15:26:00.465Z,531.33
2022-12-01T15:28:35.397Z,531.17
2022-12-01T15:31:10.305Z,519.22
2022-12-01T15:33:39.015Z,519.67
2022-12-01T15:36:07.373Z,519.92
2022-12-01T15:38:36.853Z,532.65
2022-12-01T15:41:28.400Z,522.45
2022-12-01T15:43:58.343Z,529.77
2022-12-01T15:46:36.921Z,520.65
2022-12-01T15:49:29.292Z,519.33
2022-12-01T15:52:10.963Z,509.42
2022-12-01T15:54:38.917Z,515.15
2022-12-01T15:57:06.839Z,534.00
2022-12-01T15:59:40.889Z,529.10
2022-12-01T16:02:31.269Z,535.65
2022-12-01T16:05:13.281Z,540.35
2022-12-01T16:08:11.491Z,535.83
2022-12-01T16:10:28.707Z,542.37
2022-12-01T16:13:33.880Z,536.00
2022-12-01T16:16:00.660Z,539.35
2022-12-01T16:18:34.470Z,548.30
2022-12-01T16:21:04.177Z,542.90
2022-12-01T16:23:32.045Z,541.80
2022-12-01T16:43:39.296Z,529.33
2022-12-01T16:46:19.222Z,522.92
2022-12-01T16:54:54.216Z,514.40
2022-12-01T16:57:21.454Z,520.70
2022-12-01T16:59:49.699Z,525.75
2022-12-01T17:02:18.288Z,523.25
2022-12-01T17:04:45.093Z,525.97
2022-12-01T17:07:11.831Z,523.17
2022-12-01T17:09:38.436Z,523.75
2022-12-01T17:12:05.373Z,524.00
2022-12-01T17:14:32.001Z,518.60
2022-12-01T17:16:58.668Z,528.30
2022-12-01T17:19:25.196Z,516.17
2022-12-01T17:21:52.838Z,523.63
2022-12-01T17:24:19.564Z,510.45
2022-12-01T17:26:46.268Z,511.17
2022-12-01T17:29:12.849Z,520.67
2022-12-01T17:31:39.658Z,515.42
2022-12-01T17:34:06.280Z,519.35
2022-12-01T17:36:34.403Z,509.60
2022-12-01T17:39:00.953Z,513.17
2022-12-01T17:41:32.348Z,515.22
2022-12-01T17:44:01.515Z,514.90
2022-12-01T17:46:28.205Z,508.80
2022-12-01T17:48:54.873Z,516.15
2022-12-01T17:51:21.751Z,502.33
2022-12-01T17:53:48.397Z,500.33
2022-12-01T17:56:16.684Z,490.35
2022-12-01T17:58:43.875Z,486.88
2022-12-01T18:01:16.964Z,479.83
2022-12-01T18:03:43.983Z,489.50
2022-12-01T18:06:12.124Z,493.85
2022-12-01T18:08:39.763Z,490.90
2022-12-01T18:11:10.212Z,486.35
2022-12-01T18:13:42.121Z,489.17
2022-12-01T18:16:14.578Z,491.08
2022-12-01T18:18:42.039Z,508.73
2022-12-01T18:21:11.058Z,506.83
2022-12-01T18:23:37.860Z,496.75
2022-12-01T18:26:16.259Z,515.30
2022-12-01T18:28:43.876Z,500.42
2022-12-01T18:31:13.147Z,504.20
2022-12-01T18:33:42.092Z,511.58
2022-12-01T18:36:16.870Z,507.77
2022-12-01T18:38:44.560Z,513.42
2022-12-01T18:41:11.182Z,519.72
2022-12-01T18:43:37.786Z,501.50
2022-12-01T18:46:05.809Z,502.17
2022-12-01T18:48:33.784Z,504.15
2022-12-01T18:51:04.532Z,490.38
2022-12-01T18:53:31.898Z,489.40
2022-12-01T18:56:05.498Z,481.00
2022-12-01T18:58:32.568Z,489.17
2022-12-01T19:01:00.228Z,498.77
2022-12-01T19:03:33.404Z,507.70
2022-12-01T19:06:00.746Z,505.65
2022-12-01T19:08:27.411Z,506.30
2022-12-01T19:11:00.071Z,511.10
2022-12-01T19:13:27.735Z,500.27
2022-12-01T19:15:54.364Z,496.05
2022-12-01T19:18:21.100Z,504.15
2022-12-01T19:20:48.500Z,511.02
2022-12-01T19:23:15.849Z,514.77
2022-12-01T19:25:43.746Z,519.83
2022-12-01T19:28:10.499Z,512.97
2022-12-01T19:30:37.269Z,507.58
2022-12-01T19:33:04.117Z,498.58
2022-12-01T19:35:31.686Z,507.15
2022-12-01T19:37:58.639Z,499.30
2022-12-01T19:40:25.336Z,490.52
2022-12-01T19:42:52.643Z,482.55
2022-12-01T19:45:19.530Z,484.67
2022-12-01T19:47:46.818Z,495.13
2022-12-01T19:50:13.688Z,484.13
2022-12-01T19:52:41.518Z,493.85
2022-12-01T19:55:10.675Z,492.25
2022-12-01T19:57:37.886Z,500.42
2022-12-01T20:00:05.116Z,504.58
2022-12-01T20:02:38.764Z,516.60
2022-12-01T20:05:05.926Z,509.27
2022-12-01T20:07:32.845Z,519.70
2022-12-01T20:09:59.582Z,518.47
2022-12-01T20:12:26.273Z,508.08
2022-12-01T20:14:53.410Z,504.63
2022-12-01T20:17:20.168Z,512.13
2022-12-01T20:19:46.813Z,510.17
2022-12-01T20:22:13.545Z,503.65
2022-12-01T20:24:42.070Z,501.38
2022-12-01T20:27:09.037Z,491.45
2022-12-01T20:29:35.857Z,504.92
2022-12-01T20:32:03.472Z,493.83
2022-12-01T20:34:33.789Z,504.20
2022-12-01T20:37:02.567Z,500.07
2022-12-01T20:39:32.340Z,499.47
2022-12-01T20:41:59.419Z,509.60
2022-12-01T20:44:27.006Z,513.40
2022-12-01T20:46:58.358Z,512.67
2022-12-01T20:49:25.159Z,520.60
2022-12-01T20:51:51.935Z,521.50
2022-12-01T20:54:28.265Z,522.15
2022-12-01T20:56:56.575Z,517.95
2022-12-01T20:59:23.524Z,515.10
2022-12-01T21:01:50.218Z,522.88
2022-12-01T21:04:17.696Z,521.35
2022-12-01T21:06:44.467Z,536.25
2022-12-01T21:09:12.348Z,527.35
2022-12-01T21:12:06.741Z,529.45
2022-12-01T21:14:37.915Z,525.83
2022-12-01T21:17:28.684Z,528.47
2022-12-01T21:20:08.869Z,535.95
2022-12-01T21:22:36.165Z,523.92
2022-12-01T21:25:12.441Z,533.83
2022-12-01T21:27:39.114Z,538.00
2022-12-01T21:30:18.597Z,533.50
2022-12-01T21:32:46.889Z,552.30
2022-12-01T21:35:17.518Z,542.00
2022-12-01T21:37:44.642Z,540.90
2022-12-01T21:40:23.701Z,545.83
2022-12-01T21:42:51.365Z,546.75
2022-12-01T21:45:29.739Z,545.72
2022-12-01T21:48:25.273Z,547.58
2022-12-01T21:51:01.024Z,543.55
2022-12-01T21:53:36.317Z,545.03
2022-12-01T21:56:03.072Z,540.37
2022-12-01T21:58:36.278Z,542.78
2022-12-01T22:01:15.181Z,539.97
2022-12-01T22:03:46.185Z,538.90
2022-12-01T22:06:30.329Z,533.05
2022-12-01T22:09:11.382Z,521.85
2022-12-01T22:11:38.000Z,537.38
2022-12-01T22:14:21.951Z,549.43
2022-12-01T22:17:21.691Z,541.35
2022-12-01T22:20:22.133Z,546.97
2022-12-01T22:22:48.776Z,545.15
2022-12-01T22:25:25.312Z,551.25
2022-12-01T22:27:52.063Z,553.92
2022-12-01T22:30:21.590Z,551.70
2022-12-01T22:33:10.392Z,552.67
2022-12-01T22:35:50.856Z,551.33
2022-12-01T22:38:43.909Z,543.17
2022-12-01T22:41:15.783Z,553.60
2022-12-01T22:43:42.572Z,547.45
2022-12-01T22:46:35.180Z,546.53
2022-12-01T22:49:10.707Z,543.85
2022-12-01T22:51:46.605Z,535.97
2022-12-01T22:54:16.173Z,542.87
2022-12-01T22:56:53.681Z,549.90
2022-12-01T22:59:41.764Z,553.20
2022-12-01T23:02:22.429Z,542.78
2022-12-01T23:04:57.448Z,551.97
2022-12-01T23:07:30.154Z,554.80
2022-12-01T23:10:02.689Z,550.03
2022-12-01T23:12:32.122Z,561.83
2022-12-01T23:15:16.581Z,558.28
2022-12-01T23:17:43.365Z,560.15
2022-12-01T23:20:09.890Z,557.67
2022-12-01T23:22:37.978Z,556.13
2022-12-01T23:25:16.558Z,554.53
2022-12-01T23:27:46.013Z,546.20
2022-12-01T23:30:14.261Z,549.33
2022-12-01T23:32:40.875Z,555.35
2022-12-01T23:35:14.739Z,550.85
2022-12-01T23:37:43.576Z,547.05
2022-12-01T23:40:21.119Z,548.30
2022-12-01T23:42:48.636Z,552.38
2022-12-01T23:45:21.493Z,554.08
2022-12-01T23:47:49.940Z,550.42
2022-12-01T23:50:23.006Z,556.43
2022-12-01T23:52:49.738Z,546.65
2022-12-01T23:55:25.501Z,552.72
2022-12-01T23:57:52.976Z,548.78
